sensor_id;sensor_type;location;lat;lon;timestamp;pressure;altitude;pressure_sealevel;temperature;humidity
57594;BME280;43423;46.510;6.686;2023-03-26T00:01:01;96124.44;;;8.85;70.93
57594;BME280;43423;46.510;6.686;2023-03-26T00:03:35;96141.91;;;8.88;70.91
57594;BME280;43423;46.510;6.686;2023-03-26T00:06:15;96136.06;;;8.95;70.58
57594;BME280;43423;46.510;6.686;2023-03-26T00:08:42;96130.75;;;8.91;69.96
57594;BME280;43423;46.510;6.686;2023-03-26T00:11:11;96139.53;;;8.95;70.17
57594;BME280;43423;46.510;6.686;2023-03-26T00:13:37;96132.63;;;9.00;70.38
57594;BME280;43423;46.510;6.686;2023-03-26T00:16:03;96134.69;;;9.05;70.04
57594;BME280;43423;46.510;6.686;2023-03-26T00:18:29;96151.72;;;9.09;68.67
57594;BME280;43423;46.510;6.686;2023-03-26T00:21:04;96140.56;;;9.13;69.33
57594;BME280;43423;46.510;6.686;2023-03-26T00:23:31;96140.38;;;9.16;68.40
57594;BME280;43423;46.510;6.686;2023-03-26T00:26:00;96136.38;;;9.17;69.05
57594;BME280;43423;46.510;6.686;2023-03-26T00:28:27;96145.84;;;9.16;68.75
57594;BME280;43423;46.510;6.686;2023-03-26T00:31:02;96132.28;;;9.28;71.36
57594;BME280;43423;46.510;6.686;2023-03-26T00:33:28;96145.44;;;9.23;70.94
57594;BME280;43423;46.510;6.686;2023-03-26T00:35:56;96146.97;;;9.25;72.55
57594;BME280;43423;46.510;6.686;2023-03-26T00:38:23;96153.22;;;9.25;72.14
57594;BME280;43423;46.510;6.686;2023-03-26T00:40:50;96165.13;;;9.22;73.76
57594;BME280;43423;46.510;6.686;2023-03-26T00:43:17;96169.31;;;9.17;74.58
57594;BME280;43423;46.510;6.686;2023-03-26T00:45:48;96164.84;;;9.20;77.58
57594;BME280;43423;46.510;6.686;2023-03-26T00:48:15;96155.09;;;9.19;78.04
57594;BME280;43423;46.510;6.686;2023-03-26T00:50:43;96148.22;;;9.09;76.42
57594;BME280;43423;46.510;6.686;2023-03-26T00:53:08;96134.44;;;9.03;77.01
57594;BME280;43423;46.510;6.686;2023-03-26T00:55:40;96130.19;;;8.87;77.18
57594;BME280;43423;46.510;6.686;2023-03-26T00:58:07;96135.09;;;8.98;75.66
57594;BME280;43423;46.510;6.686;2023-03-26T01:00:42;96142.09;;;8.84;75.75
57594;BME280;43423;46.510;6.686;2023-03-26T01:03:11;96144.94;;;8.90;76.93
57594;BME280;43423;46.510;6.686;2023-03-26T01:05:42;96148.53;;;8.96;77.42
57594;BME280;43423;46.510;6.686;2023-03-26T01:08:24;96145.13;;;9.01;77.49
57594;BME280;43423;46.510;6.686;2023-03-26T01:10:53;96123.94;;;9.02;75.68
57594;BME280;43423;46.510;6.686;2023-03-26T01:13:29;96111.25;;;9.04;75.41
57594;BME280;43423;46.510;6.686;2023-03-26T01:15:55;96114.66;;;8.99;75.64
57594;BME280;43423;46.510;6.686;2023-03-26T01:18:23;96116.59;;;8.93;77.53
57594;BME280;43423;46.510;6.686;2023-03-26T01:20:54;96093.31;;;8.88;78.63
57594;BME280;43423;46.510;6.686;2023-03-26T01:23:46;96084.47;;;8.79;78.23
57594;BME280;43423;46.510;6.686;2023-03-26T01:29:03;96035.69;;;8.68;77.81
57594;BME280;43423;46.510;6.686;2023-03-26T01:31:34;96025.38;;;8.78;77.36
57594;BME280;43423;46.510;6.686;2023-03-26T01:34:16;96038.41;;;8.83;77.11
57594;BME280;43423;46.510;6.686;2023-03-26T01:39:23;96045.31;;;8.78;77.59
57594;BME280;43423;46.510;6.686;2023-03-26T01:41:57;96037.84;;;8.79;76.90
57594;BME280;43423;46.510;6.686;2023-03-26T01:44:35;96037.16;;;8.84;77.28
57594;BME280;43423;46.510;6.686;2023-03-26T01:47:03;96036.75;;;8.91;77.31
57594;BME280;43423;46.510;6.686;2023-03-26T01:49:30;96029.03;;;8.89;77.59
57594;BME280;43423;46.510;6.686;2023-03-26T01:51:57;96020.88;;;8.95;77.11
57594;BME280;43423;46.510;6.686;2023-03-26T01:54:26;96021.72;;;9.01;75.31
57594;BME280;43423;46.510;6.686;2023-03-26T02:00:03;95996.00;;;8.99;71.81
57594;BME280;43423;46.510;6.686;2023-03-26T02:02:38;95997.09;;;9.07;72.07
57594;BME280;43423;46.510;6.686;2023-03-26T02:05:26;96003.28;;;9.02;70.73
57594;BME280;43423;46.510;6.686;2023-03-26T02:08:19;95993.81;;;9.03;71.35
57594;BME280;43423;46.510;6.686;2023-03-26T02:10:50;95992.50;;;8.98;71.09
57594;BME280;43423;46.510;6.686;2023-03-26T02:13:17;95984.88;;;8.87;73.08
57594;BME280;43423;46.510;6.686;2023-03-26T02:15:58;95980.63;;;8.86;74.59
57594;BME280;43423;46.510;6.686;2023-03-26T02:18:24;95990.63;;;8.89;74.57
57594;BME280;43423;46.510;6.686;2023-03-26T02:20:52;95988.28;;;8.82;75.14
57594;BME280;43423;46.510;6.686;2023-03-26T02:23:19;95985.28;;;8.80;74.53
57594;BME280;43423;46.510;6.686;2023-03-26T02:25:45;95963.84;;;8.79;75.04
57594;BME280;43423;46.510;6.686;2023-03-26T02:28:11;95973.66;;;8.85;74.21
57594;BME280;43423;46.510;6.686;2023-03-26T02:30:36;95981.25;;;8.96;73.51
57594;BME280;43423;46.510;6.686;2023-03-26T02:33:02;95964.25;;;8.92;72.53
57594;BME280;43423;46.510;6.686;2023-03-26T02:35:28;95958.84;;;8.98;70.11
57594;BME280;43423;46.510;6.686;2023-03-26T02:37:54;95947.53;;;9.10;71.73
57594;BME280;43423;46.510;6.686;2023-03-26T02:40:19;95951.09;;;9.16;67.98
57594;BME280;43423;46.510;6.686;2023-03-26T02:42:47;95940.19;;;9.22;68.68
57594;BME280;43423;46.510;6.686;2023-03-26T02:45:13;95937.38;;;9.16;68.23
57594;BME280;43423;46.510;6.686;2023-03-26T02:47:39;95931.03;;;9.31;67.02
57594;BME280;43423;46.510;6.686;2023-03-26T02:50:04;95927.63;;;9.36;68.21
57594;BME280;43423;46.510;6.686;2023-03-26T02:52:30;95925.41;;;9.40;68.06
57594;BME280;43423;46.510;6.686;2023-03-26T02:54:57;95923.22;;;9.44;67.91
57594;BME280;43423;46.510;6.686;2023-03-26T02:57:23;95915.19;;;9.40;67.86
57594;BME280;43423;46.510;6.686;2023-03-26T02:59:49;95913.91;;;9.36;67.35
57594;BME280;43423;46.510;6.686;2023-03-26T03:02:17;95911.69;;;9.40;67.97
57594;BME280;43423;46.510;6.686;2023-03-26T03:04:44;95911.25;;;9.47;67.79
57594;BME280;43423;46.510;6.686;2023-03-26T03:07:09;95901.47;;;9.40;67.92
57594;BME280;43423;46.510;6.686;2023-03-26T03:09:39;95889.19;;;9.36;67.74
57594;BME280;43423;46.510;6.686;2023-03-26T03:12:05;95882.28;;;9.40;67.29
57594;BME280;43423;46.510;6.686;2023-03-26T03:14:30;95878.97;;;9.36;67.60
57594;BME280;43423;46.510;6.686;2023-03-26T03:16:56;95883.28;;;9.43;68.88
57594;BME280;43423;46.510;6.686;2023-03-26T03:19:21;95880.00;;;9.39;69.94
57594;BME280;43423;46.510;6.686;2023-03-26T03:21:47;95874.03;;;9.40;69.37
57594;BME280;43423;46.510;6.686;2023-03-26T03:24:12;95872.06;;;9.41;70.87
57594;BME280;43423;46.510;6.686;2023-03-26T03:26:42;95854.59;;;9.44;69.97
57594;BME280;43423;46.510;6.686;2023-03-26T03:29:09;95841.50;;;9.28;69.70
57594;BME280;43423;46.510;6.686;2023-03-26T03:31:36;95838.00;;;9.27;68.73
57594;BME280;43423;46.510;6.686;2023-03-26T03:34:02;95837.66;;;9.19;70.19
57594;BME280;43423;46.510;6.686;2023-03-26T03:36:28;95842.19;;;9.22;70.79
57594;BME280;43423;46.510;6.686;2023-03-26T03:38:54;95834.66;;;9.17;70.44
57594;BME280;43423;46.510;6.686;2023-03-26T03:41:20;95844.91;;;9.22;70.28
57594;BME280;43423;46.510;6.686;2023-03-26T03:43:46;95841.97;;;9.26;70.07
57594;BME280;43423;46.510;6.686;2023-03-26T03:46:11;95846.31;;;9.38;69.34
57594;BME280;43423;46.510;6.686;2023-03-26T03:48:37;95837.25;;;9.27;70.29
57594;BME280;43423;46.510;6.686;2023-03-26T03:51:04;95836.44;;;9.20;70.18
57594;BME280;43423;46.510;6.686;2023-03-26T03:53:30;95828.03;;;9.30;69.42
57594;BME280;43423;46.510;6.686;2023-03-26T03:55:56;95813.56;;;9.29;69.09
57594;BME280;43423;46.510;6.686;2023-03-26T03:58:23;95811.09;;;9.31;68.99
57594;BME280;43423;46.510;6.686;2023-03-26T04:00:51;95806.09;;;9.30;69.66
57594;BME280;43423;46.510;6.686;2023-03-26T04:03:17;95816.38;;;9.35;69.35
57594;BME280;43423;46.510;6.686;2023-03-26T04:05:44;95818.84;;;9.33;69.75
57594;BME280;43423;46.510;6.686;2023-03-26T04:08:15;95805.81;;;9.28;70.46
57594;BME280;43423;46.510;6.686;2023-03-26T04:10:42;95804.31;;;9.27;70.26
57594;BME280;43423;46.510;6.686;2023-03-26T04:13:09;95799.09;;;9.29;70.56
57594;BME280;43423;46.510;6.686;2023-03-26T04:15:34;95806.81;;;9.25;69.83
57594;BME280;43423;46.510;6.686;2023-03-26T04:18:00;95802.69;;;9.14;70.28
57594;BME280;43423;46.510;6.686;2023-03-26T04:20:26;95799.34;;;9.31;70.90
57594;BME280;43423;46.510;6.686;2023-03-26T04:22:52;95798.84;;;9.27;69.67
57594;BME280;43423;46.510;6.686;2023-03-26T04:25:17;95802.59;;;9.29;69.51
57594;BME280;43423;46.510;6.686;2023-03-26T04:27:43;95799.34;;;9.31;69.61
57594;BME280;43423;46.510;6.686;2023-03-26T04:30:12;95793.13;;;9.30;70.34
57594;BME280;43423;46.510;6.686;2023-03-26T04:32:39;95793.88;;;9.31;70.07
57594;BME280;43423;46.510;6.686;2023-03-26T04:35:11;95795.91;;;9.36;69.14
57594;BME280;43423;46.510;6.686;2023-03-26T04:37:39;95792.91;;;9.34;70.10
57594;BME280;43423;46.510;6.686;2023-03-26T04:40:17;95789.09;;;9.26;70.83
57594;BME280;43423;46.510;6.686;2023-03-26T04:42:43;95792.53;;;9.20;72.25
57594;BME280;43423;46.510;6.686;2023-03-26T04:45:12;95790.03;;;9.17;73.84
57594;BME280;43423;46.510;6.686;2023-03-26T04:47:38;95795.94;;;9.10;75.31
57594;BME280;43423;46.510;6.686;2023-03-26T04:50:05;95799.81;;;8.98;75.11
57594;BME280;43423;46.510;6.686;2023-03-26T04:52:32;95784.81;;;8.93;75.18
57594;BME280;43423;46.510;6.686;2023-03-26T04:54:58;95789.50;;;8.87;74.91
57594;BME280;43423;46.510;6.686;2023-03-26T04:57:27;95800.44;;;8.87;75.62
57594;BME280;43423;46.510;6.686;2023-03-26T04:59:53;95813.59;;;8.83;77.18
57594;BME280;43423;46.510;6.686;2023-03-26T05:02:19;95803.63;;;8.80;77.83
57594;BME280;43423;46.510;6.686;2023-03-26T05:04:45;95806.84;;;8.78;78.02
57594;BME280;43423;46.510;6.686;2023-03-26T05:07:16;95790.47;;;8.63;80.05
57594;BME280;43423;46.510;6.686;2023-03-26T05:09:43;95793.84;;;8.53;81.96
57594;BME280;43423;46.510;6.686;2023-03-26T05:12:08;95791.72;;;8.62;82.08
57594;BME280;43423;46.510;6.686;2023-03-26T05:14:34;95806.78;;;8.52;83.07
57594;BME280;43423;46.510;6.686;2023-03-26T05:17:01;95806.50;;;8.50;83.24
57594;BME280;43423;46.510;6.686;2023-03-26T05:19:31;95805.28;;;8.51;84.97
57594;BME280;43423;46.510;6.686;2023-03-26T05:21:57;95805.56;;;8.53;85.07
57594;BME280;43423;46.510;6.686;2023-03-26T05:24:23;95806.78;;;8.52;85.78
57594;BME280;43423;46.510;6.686;2023-03-26T05:26:49;95803.91;;;8.61;87.27
57594;BME280;43423;46.510;6.686;2023-03-26T05:29:16;95778.78;;;8.43;86.65
57594;BME280;43423;46.510;6.686;2023-03-26T05:31:42;95771.88;;;8.47;88.43
57594;BME280;43423;46.510;6.686;2023-03-26T05:34:09;95756.66;;;8.46;88.43
57594;BME280;43423;46.510;6.686;2023-03-26T05:36:34;95744.47;;;8.47;89.06
57594;BME280;43423;46.510;6.686;2023-03-26T05:39:02;95737.19;;;8.44;88.28
57594;BME280;43423;46.510;6.686;2023-03-26T05:41:28;95727.06;;;8.50;89.84
57594;BME280;43423;46.510;6.686;2023-03-26T05:43:53;95740.00;;;8.50;86.80
57594;BME280;43423;46.510;6.686;2023-03-26T05:46:19;95732.81;;;8.52;87.20
57594;BME280;43423;46.510;6.686;2023-03-26T05:48:46;95738.84;;;8.56;88.20
57594;BME280;43423;46.510;6.686;2023-03-26T05:51:12;95734.34;;;8.53;88.04
57594;BME280;43423;46.510;6.686;2023-03-26T05:53:40;95724.13;;;8.54;88.31
57594;BME280;43423;46.510;6.686;2023-03-26T05:56:05;95734.84;;;8.57;88.05
57594;BME280;43423;46.510;6.686;2023-03-26T05:58:32;95739.81;;;8.53;86.77
57594;BME280;43423;46.510;6.686;2023-03-26T06:01:04;95751.22;;;8.52;87.07
57594;BME280;43423;46.510;6.686;2023-03-26T06:03:33;95758.66;;;8.46;87.72
57594;BME280;43423;46.510;6.686;2023-03-26T06:05:59;95750.63;;;8.42;85.85
57594;BME280;43423;46.510;6.686;2023-03-26T06:08:25;95769.09;;;8.27;87.40
57594;BME280;43423;46.510;6.686;2023-03-26T06:11:00;95770.03;;;8.38;88.25
57594;BME280;43423;46.510;6.686;2023-03-26T06:13:26;95775.41;;;8.33;88.29
57594;BME280;43423;46.510;6.686;2023-03-26T06:15:52;95788.16;;;8.36;89.09
57594;BME280;43423;46.510;6.686;2023-03-26T06:18:18;95798.81;;;8.34;89.70
57594;BME280;43423;46.510;6.686;2023-03-26T06:20:45;95786.34;;;8.33;89.08
57594;BME280;43423;46.510;6.686;2023-03-26T06:23:11;95809.47;;;8.11;89.70
57594;BME280;43423;46.510;6.686;2023-03-26T06:25:36;95815.47;;;7.95;91.41
57594;BME280;43423;46.510;6.686;2023-03-26T06:28:02;95807.31;;;7.80;92.06
57594;BME280;43423;46.510;6.686;2023-03-26T06:30:27;95794.00;;;7.73;92.60
57594;BME280;43423;46.510;6.686;2023-03-26T06:32:53;95793.25;;;7.73;92.28
57594;BME280;43423;46.510;6.686;2023-03-26T06:35:19;95771.09;;;7.71;92.95
57594;BME280;43423;46.510;6.686;2023-03-26T06:37:45;95768.25;;;7.80;93.45
57594;BME280;43423;46.510;6.686;2023-03-26T06:40:10;95767.66;;;7.91;93.38
57594;BME280;43423;46.510;6.686;2023-03-26T06:42:36;95753.41;;;7.87;93.05
57594;BME280;43423;46.510;6.686;2023-03-26T06:45:02;95745.75;;;7.91;93.75
57594;BME280;43423;46.510;6.686;2023-03-26T06:47:28;95757.09;;;8.04;95.44
57594;BME280;43423;46.510;6.686;2023-03-26T06:49:53;95753.97;;;8.11;95.39
57594;BME280;43423;46.510;6.686;2023-03-26T06:52:19;95740.47;;;8.28;95.25
57594;BME280;43423;46.510;6.686;2023-03-26T06:54:44;95719.69;;;8.36;95.50
57594;BME280;43423;46.510;6.686;2023-03-26T06:57:10;95728.56;;;8.31;95.89
57594;BME280;43423;46.510;6.686;2023-03-26T06:59:36;95724.22;;;8.39;96.22
57594;BME280;43423;46.510;6.686;2023-03-26T07:02:02;95719.53;;;8.45;95.21
57594;BME280;43423;46.510;6.686;2023-03-26T07:04:28;95714.25;;;8.42;94.39
57594;BME280;43423;46.510;6.686;2023-03-26T07:06:53;95731.72;;;8.44;93.39
57594;BME280;43423;46.510;6.686;2023-03-26T07:09:19;95741.50;;;8.51;93.60
57594;BME280;43423;46.510;6.686;2023-03-26T07:11:45;95727.66;;;8.60;93.90
57594;BME280;43423;46.510;6.686;2023-03-26T07:14:10;95729.63;;;8.59;94.49
57594;BME280;43423;46.510;6.686;2023-03-26T07:16:36;95734.47;;;8.44;93.59
57594;BME280;43423;46.510;6.686;2023-03-26T07:19:01;95728.94;;;8.38;93.95
57594;BME280;43423;46.510;6.686;2023-03-26T07:21:27;95736.78;;;8.31;93.16
57594;BME280;43423;46.510;6.686;2023-03-26T07:23:53;95725.09;;;8.30;95.25
57594;BME280;43423;46.510;6.686;2023-03-26T07:26:24;95738.44;;;8.23;90.65
57594;BME280;43423;46.510;6.686;2023-03-26T07:28:56;95739.22;;;8.29;91.01
57594;BME280;43423;46.510;6.686;2023-03-26T07:31:33;95720.44;;;8.36;90.63
57594;BME280;43423;46.510;6.686;2023-03-26T07:40:13;95720.00;;;8.44;90.13
57594;BME280;43423;46.510;6.686;2023-03-26T07:42:49;95701.59;;;8.44;89.94
57594;BME280;43423;46.510;6.686;2023-03-26T07:45:28;95688.44;;;8.48;91.65
57594;BME280;43423;46.510;6.686;2023-03-26T07:47:58;95693.50;;;8.55;92.77
57594;BME280;43423;46.510;6.686;2023-03-26T07:50:24;95707.19;;;8.55;93.00
57594;BME280;43423;46.510;6.686;2023-03-26T07:52:51;95725.72;;;8.66;94.14
57594;BME280;43423;46.510;6.686;2023-03-26T07:55:17;95737.50;;;8.72;94.75
57594;BME280;43423;46.510;6.686;2023-03-26T07:57:59;95738.03;;;8.76;94.35
57594;BME280;43423;46.510;6.686;2023-03-26T08:00:34;95757.44;;;8.73;94.47
57594;BME280;43423;46.510;6.686;2023-03-26T08:03:28;95752.06;;;8.58;93.65
57594;BME280;43423;46.510;6.686;2023-03-26T08:06:27;95762.41;;;8.48;93.83
57594;BME280;43423;46.510;6.686;2023-03-26T08:12:19;95712.28;;;8.42;93.80
57594;BME280;43423;46.510;6.686;2023-03-26T08:15:09;95670.69;;;8.44;93.51
57594;BME280;43423;46.510;6.686;2023-03-26T08:20:52;95723.66;;;8.35;96.32
57594;BME280;43423;46.510;6.686;2023-03-26T08:23:29;95739.78;;;8.33;96.02
57594;BME280;43423;46.510;6.686;2023-03-26T08:26:18;95729.72;;;8.45;97.92
57594;BME280;43423;46.510;6.686;2023-03-26T08:28:52;95713.34;;;8.50;95.59
57594;BME280;43423;46.510;6.686;2023-03-26T08:31:30;95691.44;;;8.50;92.54
57594;BME280;43423;46.510;6.686;2023-03-26T08:33:57;95718.84;;;8.50;83.67
57594;BME280;43423;46.510;6.686;2023-03-26T08:36:23;95742.00;;;8.49;85.91
57594;BME280;43423;46.510;6.686;2023-03-26T08:38:48;95741.66;;;8.42;87.74
57594;BME280;43423;46.510;6.686;2023-03-26T08:49:50;95740.75;;;8.50;88.38
57594;BME280;43423;46.510;6.686;2023-03-26T09:03:43;95749.94;;;8.27;92.37
57594;BME280;43423;46.510;6.686;2023-03-26T09:11:57;95727.06;;;8.09;95.77
57594;BME280;43423;46.510;6.686;2023-03-26T09:15:03;95735.47;;;8.26;95.68
57594;BME280;43423;46.510;6.686;2023-03-26T09:17:49;95725.63;;;8.34;97.88
57594;BME280;43423;46.510;6.686;2023-03-26T09:29:04;95724.72;;;8.63;100.00
57594;BME280;43423;46.510;6.686;2023-03-26T09:34:23;95710.28;;;8.68;97.53
57594;BME280;43423;46.510;6.686;2023-03-26T09:42:06;95717.94;;;8.59;97.44
57594;BME280;43423;46.510;6.686;2023-03-26T09:52:54;95687.28;;;7.73;96.65
57594;BME280;43423;46.510;6.686;2023-03-26T10:01:23;95679.56;;;7.72;96.53
57594;BME280;43423;46.510;6.686;2023-03-26T10:04:13;95682.84;;;7.96;96.83
57594;BME280;43423;46.510;6.686;2023-03-26T10:06:57;95691.41;;;8.04;99.18
57594;BME280;43423;46.510;6.686;2023-03-26T10:09:53;95690.91;;;8.05;97.73
57594;BME280;43423;46.510;6.686;2023-03-26T10:15:23;95696.53;;;8.17;95.78
57594;BME280;43423;46.510;6.686;2023-03-26T10:17:53;95691.59;;;8.21;97.23
57594;BME280;43423;46.510;6.686;2023-03-26T10:20:27;95703.50;;;8.18;95.73
57594;BME280;43423;46.510;6.686;2023-03-26T10:23:08;95704.41;;;8.09;93.02
57594;BME280;43423;46.510;6.686;2023-03-26T10:26:11;95703.50;;;8.18;92.75
57594;BME280;43423;46.510;6.686;2023-03-26T10:29:13;95704.88;;;8.28;95.06
57594;BME280;43423;46.510;6.686;2023-03-26T10:32:08;95701.38;;;8.27;96.00
57594;BME280;43423;46.510;6.686;2023-03-26T10:35:02;95701.19;;;8.31;95.14
57594;BME280;43423;46.510;6.686;2023-03-26T10:40:50;95733.28;;;8.51;93.05
57594;BME280;43423;46.510;6.686;2023-03-26T10:43:35;95716.53;;;8.43;94.36
57594;BME280;43423;46.510;6.686;2023-03-26T10:51:59;95735.75;;;8.28;90.41
57594;BME280;43423;46.510;6.686;2023-03-26T10:57:34;95739.59;;;8.57;87.45
57594;BME280;43423;46.510;6.686;2023-03-26T11:00:23;95721.16;;;8.57;83.85
57594;BME280;43423;46.510;6.686;2023-03-26T11:02:57;95726.47;;;8.66;83.87
57594;BME280;43423;46.510;6.686;2023-03-26T11:05:40;95692.63;;;8.70;82.10
57594;BME280;43423;46.510;6.686;2023-03-26T11:08:12;95699.88;;;8.73;82.65
57594;BME280;43423;46.510;6.686;2023-03-26T11:10:48;95687.47;;;8.77;88.23
57594;BME280;43423;46.510;6.686;2023-03-26T11:13:39;95686.66;;;8.71;89.56
57594;BME280;43423;46.510;6.686;2023-03-26T11:16:17;95694.63;;;8.69;85.18
57594;BME280;43423;46.510;6.686;2023-03-26T11:21:52;95706.47;;;8.60;88.66
57594;BME280;43423;46.510;6.686;2023-03-26T11:29:44;95686.59;;;8.19;89.92
57594;BME280;43423;46.510;6.686;2023-03-26T11:32:16;95682.59;;;8.15;89.51
57594;BME280;43423;46.510;6.686;2023-03-26T11:35:02;95682.50;;;7.89;89.31
57594;BME280;43423;46.510;6.686;2023-03-26T11:37:37;95668.63;;;7.72;89.07
57594;BME280;43423;46.510;6.686;2023-03-26T11:40:12;95669.41;;;7.57;89.42
57594;BME280;43423;46.510;6.686;2023-03-26T11:42:40;95670.38;;;7.54;87.72
57594;BME280;43423;46.510;6.686;2023-03-26T11:45:13;95678.72;;;7.45;90.21
57594;BME280;43423;46.510;6.686;2023-03-26T11:47:47;95667.31;;;7.47;90.37
57594;BME280;43423;46.510;6.686;2023-03-26T11:50:22;95657.63;;;7.31;91.58
57594;BME280;43423;46.510;6.686;2023-03-26T11:52:49;95671.44;;;7.42;90.85
57594;BME280;43423;46.510;6.686;2023-03-26T11:55:15;95653.69;;;7.52;90.59
57594;BME280;43423;46.510;6.686;2023-03-26T11:57:46;95640.16;;;7.64;91.92
57594;BME280;43423;46.510;6.686;2023-03-26T12:00:17;95621.34;;;7.71;89.82
57594;BME280;43423;46.510;6.686;2023-03-26T12:02:46;95630.47;;;7.83;86.86
57594;BME280;43423;46.510;6.686;2023-03-26T12:05:23;95611.97;;;7.98;87.54
57594;BME280;43423;46.510;6.686;2023-03-26T12:07:53;95618.47;;;7.80;86.25
57594;BME280;43423;46.510;6.686;2023-03-26T12:12:57;95619.09;;;7.90;86.81
57594;BME280;43423;46.510;6.686;2023-03-26T12:15:23;95600.63;;;8.11;89.79
57594;BME280;43423;46.510;6.686;2023-03-26T12:17:52;95586.50;;;8.18;91.51
57594;BME280;43423;46.510;6.686;2023-03-26T12:22:56;95588.13;;;8.30;87.35
57594;BME280;43423;46.510;6.686;2023-03-26T12:25:30;95603.59;;;8.33;89.84
57594;BME280;43423;46.510;6.686;2023-03-26T12:30:39;95608.06;;;8.31;92.56
57594;BME280;43423;46.510;6.686;2023-03-26T12:33:12;95578.31;;;8.18;94.44
57594;BME280;43423;46.510;6.686;2023-03-26T12:35:41;95560.25;;;8.32;92.73
57594;BME280;43423;46.510;6.686;2023-03-26T12:41:12;95534.97;;;8.17;91.27
57594;BME280;43423;46.510;6.686;2023-03-26T12:46:27;95541.16;;;8.11;90.98
57594;BME280;43423;46.510;6.686;2023-03-26T12:49:03;95560.75;;;8.04;92.72
57594;BME280;43423;46.510;6.686;2023-03-26T12:59:50;95648.53;;;7.75;91.38
57594;BME280;43423;46.510;6.686;2023-03-26T13:08:19;95701.63;;;7.48;95.10
57594;BME280;43423;46.510;6.686;2023-03-26T13:11:13;95731.13;;;7.09;88.67
57594;BME280;43423;46.510;6.686;2023-03-26T13:13:55;95716.75;;;6.25;90.52
57594;BME280;43423;46.510;6.686;2023-03-26T13:20:03;95586.44;;;5.96;90.10
57594;BME280;43423;46.510;6.686;2023-03-26T13:29:03;95644.38;;;6.44;90.89
57594;BME280;43423;46.510;6.686;2023-03-26T13:31:26;95661.88;;;6.53;86.31
57594;BME280;43423;46.510;6.686;2023-03-26T13:34:24;95668.84;;;6.83;89.74
57594;BME280;43423;46.510;6.686;2023-03-26T13:37:14;95651.97;;;6.85;89.23
57594;BME280;43423;46.510;6.686;2023-03-26T13:39:49;95652.34;;;6.92;90.17
57594;BME280;43423;46.510;6.686;2023-03-26T13:42:25;95667.69;;;7.05;86.99
57594;BME280;43423;46.510;6.686;2023-03-26T13:47:38;95659.97;;;7.03;88.30
57594;BME280;43423;46.510;6.686;2023-03-26T13:50:14;95655.81;;;6.93;85.65
57594;BME280;43423;46.510;6.686;2023-03-26T13:52:47;95646.38;;;7.09;84.53
57594;BME280;43423;46.510;6.686;2023-03-26T13:58:05;95645.09;;;7.24;87.94
57594;BME280;43423;46.510;6.686;2023-03-26T14:09:48;95654.13;;;7.86;81.09
57594;BME280;43423;46.510;6.686;2023-03-26T14:12:23;95652.75;;;7.96;81.85
57594;BME280;43423;46.510;6.686;2023-03-26T14:15:03;95669.72;;;8.00;86.18
57594;BME280;43423;46.510;6.686;2023-03-26T14:17:37;95668.81;;;8.09;81.06
57594;BME280;43423;46.510;6.686;2023-03-26T14:26:13;95679.78;;;8.09;78.69
57594;BME280;43423;46.510;6.686;2023-03-26T14:35:01;95671.22;;;8.22;83.58
57594;BME280;43423;46.510;6.686;2023-03-26T14:43:13;95669.97;;;8.02;78.78
57594;BME280;43423;46.510;6.686;2023-03-26T14:45:50;95662.88;;;7.90;85.36
57594;BME280;43423;46.510;6.686;2023-03-26T14:53:45;95665.34;;;8.08;78.03
57594;BME280;43423;46.510;6.686;2023-03-26T15:04:45;95674.34;;;8.35;72.95
57594;BME280;43423;46.510;6.686;2023-03-26T15:16:23;95674.34;;;8.87;81.64
57594;BME280;43423;46.510;6.686;2023-03-26T15:21:57;95668.63;;;8.90;76.19
57594;BME280;43423;46.510;6.686;2023-03-26T15:27:56;95659.91;;;8.60;74.86
57594;BME280;43423;46.510;6.686;2023-03-26T15:42:14;95644.53;;;9.00;74.09
57594;BME280;43423;46.510;6.686;2023-03-26T15:44:57;95649.00;;;8.98;74.68
57594;BME280;43423;46.510;6.686;2023-03-26T15:48:32;95652.63;;;8.83;76.02
57594;BME280;43423;46.510;6.686;2023-03-26T15:53:22;95631.16;;;9.13;71.33
57594;BME280;43423;46.510;6.686;2023-03-26T15:58:54;95636.44;;;9.22;70.48
57594;BME280;43423;46.510;6.686;2023-03-26T16:04:37;95629.00;;;8.91;73.26
57594;BME280;43423;46.510;6.686;2023-03-26T16:10:19;95630.63;;;8.72;72.24
57594;BME280;43423;46.510;6.686;2023-03-26T16:15:37;95603.59;;;8.59;70.32
57594;BME280;43423;46.510;6.686;2023-03-26T16:23:31;95604.22;;;8.75;73.11
57594;BME280;43423;46.510;6.686;2023-03-26T16:28:32;95587.88;;;8.86;67.56
57594;BME280;43423;46.510;6.686;2023-03-26T16:33:52;95579.50;;;9.01;65.79
57594;BME280;43423;46.510;6.686;2023-03-26T16:36:37;95581.03;;;9.13;66.46
57594;BME280;43423;46.510;6.686;2023-03-26T16:41:56;95578.06;;;9.11;62.68
57594;BME280;43423;46.510;6.686;2023-03-26T16:44:40;95567.59;;;9.15;63.70
57594;BME280;43423;46.510;6.686;2023-03-26T16:47:18;95562.13;;;9.20;65.80
57594;BME280;43423;46.510;6.686;2023-03-26T16:55:24;95552.16;;;9.17;66.06
57594;BME280;43423;46.510;6.686;2023-03-26T17:00:47;95544.09;;;9.03;67.04
57594;BME280;43423;46.510;6.686;2023-03-26T17:03:40;95543.31;;;8.97;64.28
57594;BME280;43423;46.510;6.686;2023-03-26T17:06:24;95538.81;;;8.99;66.83
57594;BME280;43423;46.510;6.686;2023-03-26T17:09:00;95541.31;;;8.97;67.80
57594;BME280;43423;46.510;6.686;2023-03-26T17:16:33;95544.38;;;8.67;67.47
57594;BME280;43423;46.510;6.686;2023-03-26T17:21:53;95537.06;;;8.53;71.30
57594;BME280;43423;46.510;6.686;2023-03-26T17:24:28;95539.34;;;8.34;71.05
57594;BME280;43423;46.510;6.686;2023-03-26T17:32:23;95521.34;;;8.22;68.60
57594;BME280;43423;46.510;6.686;2023-03-26T17:35:10;95510.38;;;8.22;68.74
57594;BME280;43423;46.510;6.686;2023-03-26T17:37:41;95512.41;;;8.27;68.45
57594;BME280;43423;46.510;6.686;2023-03-26T17:43:01;95513.94;;;8.34;70.34
57594;BME280;43423;46.510;6.686;2023-03-26T17:45:31;95515.00;;;8.36;71.13
57594;BME280;43423;46.510;6.686;2023-03-26T17:48:01;95511.06;;;8.43;73.01
57594;BME280;43423;46.510;6.686;2023-03-26T17:50:42;95514.06;;;8.45;76.54
57594;BME280;43423;46.510;6.686;2023-03-26T17:53:19;95507.09;;;8.44;78.51
57594;BME280;43423;46.510;6.686;2023-03-26T17:55:48;95504.84;;;8.43;76.53
57594;BME280;43423;46.510;6.686;2023-03-26T17:58:27;95503.34;;;8.42;77.78